Napoles — 5BGU4 — position and weather

sailwx.info

Track history (hours):
 
Tides and Currents Weather Stations Pressure Air Temp Water Temp Dewpoint Dewpoint Depression Visibility Wind Speed Wind Dir Waves Ship Positions

Napoles

Last reported at 2017-Dec-11 12:15 UTC. Time now 2017-Dec-13 15:08 UTC.
Position N 39°24' E 002°19'.

Length 186 m; draft 6.4 m.

Type: Ship. MMSI: 209106000.

Date/timePositionNaut miles runAvg speedWind from/ knotsBaromVisibWave heightAir tempDewpointWater temp
2017-Dec-11 12:15N 39°24' E 002°19'517.6
2017-Dec-11 11:59N 39°25' E 002°25'816.2
2017-Dec-11 11:30N 39°27' E 002°35'612.3
2017-Dec-11 11:00N 39°33' E 002°38'0 0.1
2017-Dec-11 10:30N 39°33' E 002°38'0 0.0
2017-Dec-11 10:00N 39°33' E 002°38'0 0.0
2017-Dec-11 09:30N 39°33' E 002°38'0 0.0
2017-Dec-11 09:00N 39°33' E 002°38'0 0.0
2017-Dec-11 08:30N 39°33' E 002°38'0 0.0
2017-Dec-11 08:00N 39°33' E 002°38'0 0.2
2017-Dec-11 07:30N 39°33' E 002°38'3 7.1
2017-Dec-11 07:01N 39°30' E 002°36'1120.8
2017-Dec-11 06:30N 39°22' E 002°27'4321.1
2017-Dec-11 04:28N 38°59' E 001°41'1121.2
2017-Dec-11 03:57N 38°54' E 001°28'1 2.7
2017-Dec-11 03:29N 38°54' E 001°27'0 0.2
2017-Dec-11 02:58N 38°54' E 001°27'3 5.4
2017-Dec-11 02:27N 38°54' E 001°30'919.5
2017-Dec-11 02:00N 38°60' E 001°40'23 0.7
2017-Dec-09 15:11N 38°50' E 001°12'520.7
2017-Dec-09 14:57N 38°49' E 001°18'715.2
2017-Dec-09 14:30N 38°51' E 001°27'4 6.9
2017-Dec-09 13:59N 38°54' E 001°27'0 0.0
2017-Dec-09 13:29N 38°54' E 001°27'0 0.0
2017-Dec-09 12:58N 38°54' E 001°27'3 6.2
2017-Dec-09 12:29N 38°55' E 001°31'1021.3
2017-Dec-09 12:00N 38°60' E 001°42'3420.9
2017-Dec-09 10:24N 39°18' E 002°19'821.4
2017-Dec-09 10:01N 39°23' E 002°27'1120.8
2017-Dec-09 09:30N 39°30' E 002°37'3 5.4
2017-Dec-09 09:00N 39°33' E 002°38'0 0.0
2017-Dec-09 08:30N 39°33' E 002°38'0 0.0
2017-Dec-09 08:00N 39°33' E 002°38'0 0.0
2017-Dec-09 07:30N 39°33' E 002°38'0 0.0
2017-Dec-09 07:00N 39°33' E 002°38'0 0.0
2017-Dec-09 06:30N 39°33' E 002°38'0 1.0
2017-Dec-09 06:00N 39°33' E 002°39'917.5
2017-Dec-09 05:30N 39°25' E 002°33'1019.5
2017-Dec-09 04:59N 39°20' E 002°22'3919.2
2017-Dec-09 02:59N 38°59' E 001°40'1111.5
2017-Dec-09 02:00N 38°54' E 001°27'1 2.8
2017-Dec-09 01:28N 38°53' E 001°27'5 0.5
2017-Dec-08 13:57N 38°48' E 001°24'7 6.9
2017-Dec-08 12:56N 38°54' E 001°27'1 2.8
2017-Dec-08 12:30N 38°54' E 001°28'1020.7
2017-Dec-08 12:01N 38°59' E 001°40'3820.9
2017-Dec-08 10:12N 39°19' E 002°21'420.9
2017-Dec-08 10:00N 39°21' E 002°25'1020.6
2017-Dec-08 09:30N 39°29' E 002°35'510.0
2017-Dec-08 09:00N 39°33' E 002°38'0 0.0
2017-Dec-08 08:30N 39°33' E 002°38'0 0.0
2017-Dec-08 08:00N 39°33' E 002°38'0 0.0
2017-Dec-08 07:30N 39°33' E 002°38'0 0.0
2017-Dec-08 07:00N 39°33' E 002°38'0 0.0
2017-Dec-08 06:30N 39°33' E 002°38'0 0.9
2017-Dec-08 06:00N 39°33' E 002°39'1020.8
2017-Dec-08 05:30N 39°25' E 002°30'4621.5
2017-Dec-08 03:21N 38°59' E 001°40'821.3
2017-Dec-08 03:00N 38°55' E 001°32'4 7.7
2017-Dec-08 02:29N 38°54' E 001°27'0 0.4
2017-Dec-08 02:00N 38°54' E 001°27'510.3
2017-Dec-08 01:30N 38°49' E 001°27'11 1.0
2017-Dec-07 15:06N 38°50' E 001°13'421.3
2017-Dec-07 14:55N 38°49' E 001°17'814.4
2017-Dec-07 14:23N 38°52' E 001°27'3 7.5
2017-Dec-07 14:00N 38°54' E 001°27'0 0.0
2017-Dec-07 13:26N 38°54' E 001°27'0 0.0
2017-Dec-07 12:59N 38°54' E 001°27'1 1.9
2017-Dec-07 12:30N 38°54' E 001°28'1020.2
2017-Dec-07 12:00N 38°59' E 001°39'3821.1
2017-Dec-07 10:11N 39°20' E 002°20'421.2
2017-Dec-07 10:01N 39°22' E 002°24'1121.1
2017-Dec-07 09:30N 39°29' E 002°35'5 9.7
2017-Dec-07 09:00N 39°33' E 002°38'0 0.0
2017-Dec-07 08:30N 39°33' E 002°38'0 0.0
2017-Dec-07 08:00N 39°33' E 002°38'0 0.0
2017-Dec-07 07:30N 39°33' E 002°38'0 0.0
2017-Dec-07 07:00N 39°33' E 002°38'0 0.0
2017-Dec-07 06:30N 39°33' E 002°38'1 2.7
2017-Dec-07 06:00N 39°32' E 002°38'1021.0
2017-Dec-07 05:30N 39°24' E 002°29'4621.3
2017-Dec-07 03:21N 38°59' E 001°39'821.7
2017-Dec-07 03:00N 38°55' E 001°31'3 4.1
2017-Dec-07 02:13N 38°54' E 001°27'0 0.0
2017-Dec-07 01:59N 38°54' E 001°27'  
2017-Dec-04 10:09N 39°19' E 002°22'421.5
2017-Dec-04 09:58N 39°21' E 002°26'1020.8
2017-Dec-04 09:30N 39°28' E 002°35'611.1
2017-Dec-04 09:00N 39°33' E 002°38'0 0.0
2017-Dec-04 08:18N 39°33' E 002°38'0 0.0
2017-Dec-04 08:00N 39°33' E 002°38'0 0.0
2017-Dec-04 07:30N 39°33' E 002°38'0 0.0
2017-Dec-04 07:00N 39°33' E 002°38'0 0.0
2017-Dec-04 06:30N 39°33' E 002°38'2 4.8
2017-Dec-04 06:00N 39°31' E 002°37'1020.9
2017-Dec-04 05:31N 39°24' E 002°27'4521.3
2017-Dec-04 03:23N 38°59' E 001°39'1017.2
2017-Dec-04 02:48N 38°54' E 001°27'0 0.2
2017-Dec-04 02:21N 38°54' E 001°27'12 0.3
2017-Dec-02 14:53N 38°51' E 001°12'820.5
2017-Dec-02 14:29N 38°48' E 001°23'714.1
2017-Dec-02 14:00N 38°54' E 001°27'0 0.4
2017-Dec-02 13:24N 38°54' E 001°27'0 0.0
2017-Dec-02 12:59N 38°54' E 001°27'1 2.6
2017-Dec-02 12:30N 38°54' E 001°28'1020.6
2017-Dec-02 12:00N 38°59' E 001°40'4020.4
2017-Dec-02 10:03N 39°20' E 002°23'121.2
2017-Dec-02 10:00N 39°21' E 002°24'1121.2
2017-Dec-02 09:30N 39°28' E 002°34'611.4
2017-Dec-02 09:00N 39°33' E 002°38'0 0.0
2017-Dec-02 08:30N 39°33' E 002°38'0 0.0
2017-Dec-02 08:00N 39°33' E 002°38'0 0.0
2017-Dec-02 07:30N 39°33' E 002°38'0 0.0
2017-Dec-02 07:00N 39°33' E 002°38'0 0.7
2017-Dec-02 06:30N 39°33' E 002°39'918.6
2017-Dec-02 06:00N 39°26' E 002°31'4721.3
2017-Dec-02 03:47N 38°59' E 001°40'620.9
2017-Dec-02 03:30N 38°56' E 001°34'611.8
2017-Dec-02 03:00N 38°54' E 001°27'0 0.4
2017-Dec-02 02:22N 38°54' E 001°27'7 0.6
2017-Dec-01 15:04N 38°48' E 001°22'118.6
2017-Dec-01 15:00N 38°48' E 001°24'6 3.4
2017-Dec-01 13:08N 38°54' E 001°27'0 2.4
2017-Dec-01 12:58N 38°54' E 001°28'817.3
2017-Dec-01 12:30N 38°58' E 001°37'  
Track history (hours):
 
Tides and Currents Weather Stations Pressure Air Temp Water Temp Dewpoint Dewpoint Depression Visibility Wind Speed Wind Dir Waves Ship Positions

Napoles

Last reported at 2017-Dec-11 12:15 UTC. Time now 2017-Dec-13 15:08 UTC.
Position N 39°24' E 002°19'.

Length 186 m; draft 6.4 m.

Type: Ship. MMSI: 209106000.

Date/timePositionNaut miles runAvg speedWind from/ knotsBaromVisibWave heightAir tempDewpointWater temp
2017-Dec-11 12:15N 39°24' E 002°19'517.6
2017-Dec-11 11:59N 39°25' E 002°25'816.2
2017-Dec-11 11:30N 39°27' E 002°35'612.3
2017-Dec-11 11:00N 39°33' E 002°38'0 0.1
2017-Dec-11 10:30N 39°33' E 002°38'0 0.0
2017-Dec-11 10:00N 39°33' E 002°38'0 0.0
2017-Dec-11 09:30N 39°33' E 002°38'0 0.0
2017-Dec-11 09:00N 39°33' E 002°38'0 0.0
2017-Dec-11 08:30N 39°33' E 002°38'0 0.0
2017-Dec-11 08:00N 39°33' E 002°38'0 0.2
2017-Dec-11 07:30N 39°33' E 002°38'3 7.1
2017-Dec-11 07:01N 39°30' E 002°36'1120.8
2017-Dec-11 06:30N 39°22' E 002°27'4321.1
2017-Dec-11 04:28N 38°59' E 001°41'1121.2
2017-Dec-11 03:57N 38°54' E 001°28'1 2.7
2017-Dec-11 03:29N 38°54' E 001°27'0 0.2
2017-Dec-11 02:58N 38°54' E 001°27'3 5.4
2017-Dec-11 02:27N 38°54' E 001°30'919.5
2017-Dec-11 02:00N 38°60' E 001°40'23 0.7
2017-Dec-09 15:11N 38°50' E 001°12'520.7
2017-Dec-09 14:57N 38°49' E 001°18'715.2
2017-Dec-09 14:30N 38°51' E 001°27'4 6.9
2017-Dec-09 13:59N 38°54' E 001°27'0 0.0
2017-Dec-09 13:29N 38°54' E 001°27'0 0.0
2017-Dec-09 12:58N 38°54' E 001°27'3 6.2
2017-Dec-09 12:29N 38°55' E 001°31'1021.3
2017-Dec-09 12:00N 38°60' E 001°42'3420.9
2017-Dec-09 10:24N 39°18' E 002°19'821.4
2017-Dec-09 10:01N 39°23' E 002°27'1120.8
2017-Dec-09 09:30N 39°30' E 002°37'3 5.4
2017-Dec-09 09:00N 39°33' E 002°38'0 0.0
2017-Dec-09 08:30N 39°33' E 002°38'0 0.0
2017-Dec-09 08:00N 39°33' E 002°38'0 0.0
2017-Dec-09 07:30N 39°33' E 002°38'0 0.0
2017-Dec-09 07:00N 39°33' E 002°38'0 0.0
2017-Dec-09 06:30N 39°33' E 002°38'0 1.0
2017-Dec-09 06:00N 39°33' E 002°39'917.5
2017-Dec-09 05:30N 39°25' E 002°33'1019.5
2017-Dec-09 04:59N 39°20' E 002°22'3919.2
2017-Dec-09 02:59N 38°59' E 001°40'1111.5
2017-Dec-09 02:00N 38°54' E 001°27'1 2.8
2017-Dec-09 01:28N 38°53' E 001°27'5 0.5
2017-Dec-08 13:57N 38°48' E 001°24'7 6.9
2017-Dec-08 12:56N 38°54' E 001°27'1 2.8
2017-Dec-08 12:30N 38°54' E 001°28'1020.7
2017-Dec-08 12:01N 38°59' E 001°40'3820.9
2017-Dec-08 10:12N 39°19' E 002°21'420.9
2017-Dec-08 10:00N 39°21' E 002°25'1020.6
2017-Dec-08 09:30N 39°29' E 002°35'510.0
2017-Dec-08 09:00N 39°33' E 002°38'0 0.0
2017-Dec-08 08:30N 39°33' E 002°38'0 0.0
2017-Dec-08 08:00N 39°33' E 002°38'0 0.0
2017-Dec-08 07:30N 39°33' E 002°38'0 0.0
2017-Dec-08 07:00N 39°33' E 002°38'0 0.0
2017-Dec-08 06:30N 39°33' E 002°38'0 0.9
2017-Dec-08 06:00N 39°33' E 002°39'1020.8
2017-Dec-08 05:30N 39°25' E 002°30'4621.5
2017-Dec-08 03:21N 38°59' E 001°40'821.3
2017-Dec-08 03:00N 38°55' E 001°32'4 7.7
2017-Dec-08 02:29N 38°54' E 001°27'0 0.4
2017-Dec-08 02:00N 38°54' E 001°27'510.3
2017-Dec-08 01:30N 38°49' E 001°27'11 1.0
2017-Dec-07 15:06N 38°50' E 001°13'421.3
2017-Dec-07 14:55N 38°49' E 001°17'814.4
2017-Dec-07 14:23N 38°52' E 001°27'3 7.5
2017-Dec-07 14:00N 38°54' E 001°27'0 0.0
2017-Dec-07 13:26N 38°54' E 001°27'0 0.0
2017-Dec-07 12:59N 38°54' E 001°27'1 1.9
2017-Dec-07 12:30N 38°54' E 001°28'1020.2
2017-Dec-07 12:00N 38°59' E 001°39'3821.1
2017-Dec-07 10:11N 39°20' E 002°20'421.2
2017-Dec-07 10:01N 39°22' E 002°24'1121.1
2017-Dec-07 09:30N 39°29' E 002°35'5 9.7
2017-Dec-07 09:00N 39°33' E 002°38'0 0.0
2017-Dec-07 08:30N 39°33' E 002°38'0 0.0
2017-Dec-07 08:00N 39°33' E 002°38'0 0.0
2017-Dec-07 07:30N 39°33' E 002°38'0 0.0
2017-Dec-07 07:00N 39°33' E 002°38'0 0.0
2017-Dec-07 06:30N 39°33' E 002°38'1 2.7
2017-Dec-07 06:00N 39°32' E 002°38'1021.0
2017-Dec-07 05:30N 39°24' E 002°29'4621.3
2017-Dec-07 03:21N 38°59' E 001°39'821.7
2017-Dec-07 03:00N 38°55' E 001°31'3 4.1
2017-Dec-07 02:13N 38°54' E 001°27'0 0.0
2017-Dec-07 01:59N 38°54' E 001°27'  
2017-Dec-04 10:09N 39°19' E 002°22'421.5
2017-Dec-04 09:58N 39°21' E 002°26'1020.8
2017-Dec-04 09:30N 39°28' E 002°35'611.1
2017-Dec-04 09:00N 39°33' E 002°38'0 0.0
2017-Dec-04 08:18N 39°33' E 002°38'0 0.0
2017-Dec-04 08:00N 39°33' E 002°38'0 0.0
2017-Dec-04 07:30N 39°33' E 002°38'0 0.0
2017-Dec-04 07:00N 39°33' E 002°38'0 0.0
2017-Dec-04 06:30N 39°33' E 002°38'2 4.8
2017-Dec-04 06:00N 39°31' E 002°37'1020.9
2017-Dec-04 05:31N 39°24' E 002°27'4521.3
2017-Dec-04 03:23N 38°59' E 001°39'1017.2
2017-Dec-04 02:48N 38°54' E 001°27'0 0.2
2017-Dec-04 02:21N 38°54' E 001°27'12 0.3
2017-Dec-02 14:53N 38°51' E 001°12'820.5
2017-Dec-02 14:29N 38°48' E 001°23'714.1
2017-Dec-02 14:00N 38°54' E 001°27'0 0.4
2017-Dec-02 13:24N 38°54' E 001°27'0 0.0
2017-Dec-02 12:59N 38°54' E 001°27'1 2.6
2017-Dec-02 12:30N 38°54' E 001°28'1020.6
2017-Dec-02 12:00N 38°59' E 001°40'4020.4
2017-Dec-02 10:03N 39°20' E 002°23'121.2
2017-Dec-02 10:00N 39°21' E 002°24'1121.2
2017-Dec-02 09:30N 39°28' E 002°34'611.4
2017-Dec-02 09:00N 39°33' E 002°38'0 0.0
2017-Dec-02 08:30N 39°33' E 002°38'0 0.0
2017-Dec-02 08:00N 39°33' E 002°38'0 0.0
2017-Dec-02 07:30N 39°33' E 002°38'0 0.0
2017-Dec-02 07:00N 39°33' E 002°38'0 0.7
2017-Dec-02 06:30N 39°33' E 002°39'918.6
2017-Dec-02 06:00N 39°26' E 002°31'4721.3
2017-Dec-02 03:47N 38°59' E 001°40'620.9
2017-Dec-02 03:30N 38°56' E 001°34'611.8
2017-Dec-02 03:00N 38°54' E 001°27'0 0.4
2017-Dec-02 02:22N 38°54' E 001°27'7 0.6
2017-Dec-01 15:04N 38°48' E 001°22'118.6
2017-Dec-01 15:00N 38°48' E 001°24'6 3.4
2017-Dec-01 13:08N 38°54' E 001°27'0 2.4
2017-Dec-01 12:58N 38°54' E 001°28'817.3
2017-Dec-01 12:30N 38°58' E 001°37'  

Dump ship's entire track history